RPA4164 KBNA-KAUS
Flight info
| Callsign | RPA4164 |
|---|---|
| Flight time | 2h 2m |
| Altitude | 30000 |
| Route | DRURY4 JALAR MLU MNURE WLEEE7 |
| Aircraft | E75L/M-SDE3GILORVW/S |
Departure
| Time | 2026-05-07 17:50 |
|---|---|
| Airport | Nashville International Airport (KBNA) |
Arrival
| Time | 2026-05-07 19:53 |
|---|---|
| Airport | Austin Bergstrom International Airport (KAUS) |
| Time | Latitude | Longitude | Altitude | Speed | Heading |
|---|---|---|---|---|---|
| 2026-05-07 17:33 | 36.13275 | -86.67279 | 567 ft | 0 kts | 101° |
| 2026-05-07 17:42 | 36.13275 | -86.67280 | 567 ft | 1 kts | 101° |
| 2026-05-07 17:42 | 36.13278 | -86.67297 | 576 ft | 3 kts | 104° |
| 2026-05-07 17:42 | 36.13284 | -86.67321 | 570 ft | 3 kts | 116° |
| 2026-05-07 17:42 | 36.13294 | -86.67341 | 575 ft | 3 kts | 140° |
| 2026-05-07 17:43 | 36.13308 | -86.67351 | 571 ft | 3 kts | 186° |
| 2026-05-07 17:43 | 36.13313 | -86.67351 | 570 ft | 2 kts | 194° |
| 2026-05-07 17:44 | 36.13297 | -86.67356 | 574 ft | 6 kts | 193° |
| 2026-05-07 17:45 | 36.13236 | -86.67364 | 570 ft | 11 kts | 185° |
| 2026-05-07 17:45 | 36.13147 | -86.67375 | 570 ft | 15 kts | 185° |
| 2026-05-07 17:45 | 36.13024 | -86.67365 | 568 ft | 21 kts | 161° |
| 2026-05-07 17:45 | 36.12901 | -86.67259 | 567 ft | 22 kts | 159° |
| 2026-05-07 17:46 | 36.12807 | -86.67327 | 568 ft | 17 kts | 223° |
| 2026-05-07 17:46 | 36.12734 | -86.67436 | 577 ft | 13 kts | 265° |
| 2026-05-07 17:46 | 36.12775 | -86.67506 | 572 ft | 12 kts | 312° |
| 2026-05-07 17:46 | 36.12859 | -86.67617 | 569 ft | 24 kts | 314° |
| 2026-05-07 17:47 | 36.13001 | -86.67802 | 574 ft | 33 kts | 314° |
| 2026-05-07 17:47 | 36.13073 | -86.67940 | 577 ft | 10 kts | 242° |
| 2026-05-07 17:47 | 36.12999 | -86.67980 | 576 ft | 15 kts | 198° |
| 2026-05-07 17:47 | 36.12879 | -86.68027 | 573 ft | 21 kts | 197° |
| 2026-05-07 17:48 | 36.12721 | -86.68086 | 573 ft | 27 kts | 197° |
| 2026-05-07 17:48 | 36.12517 | -86.68159 | 572 ft | 34 kts | 196° |
| 2026-05-07 17:48 | 36.12278 | -86.68247 | 577 ft | 37 kts | 197° |
| 2026-05-07 17:48 | 36.12036 | -86.68330 | 574 ft | 33 kts | 196° |
| 2026-05-07 17:49 | 36.11827 | -86.68404 | 580 ft | 27 kts | 196° |
| 2026-05-07 17:49 | 36.11734 | -86.68455 | 579 ft | 8 kts | 263° |
| 2026-05-07 17:49 | 36.11752 | -86.68541 | 577 ft | 14 kts | 288° |
| 2026-05-07 17:49 | 36.11800 | -86.68631 | 574 ft | 9 kts | 358° |
| 2026-05-07 17:50 | 36.11920 | -86.68588 | 574 ft | 42 kts | 17° |
| 2026-05-07 17:50 | 36.12439 | -86.68385 | 569 ft | 112 kts | 18° |
| 2026-05-07 17:50 | 36.13355 | -86.68023 | 717 ft | 154 kts | 18° |
| 2026-05-07 17:50 | 36.14359 | -86.67590 | 1576 ft | 152 kts | 20° |
| 2026-05-07 17:51 | 36.15381 | -86.67140 | 2259 ft | 158 kts | 17° |
| 2026-05-07 17:51 | 36.16422 | -86.66945 | 2835 ft | 151 kts | 358° |
| 2026-05-07 17:51 | 36.17496 | -86.67190 | 3355 ft | 160 kts | 343° |
| 2026-05-07 17:51 | 36.18585 | -86.67611 | 3878 ft | 172 kts | 344° |
| 2026-05-07 17:52 | 36.19769 | -86.68061 | 4333 ft | 193 kts | 343° |
| 2026-05-07 17:52 | 36.21128 | -86.68596 | 4772 ft | 211 kts | 343° |
| 2026-05-07 17:52 | 36.22563 | -86.69144 | 5223 ft | 226 kts | 342° |
| 2026-05-07 17:52 | 36.24133 | -86.69779 | 5682 ft | 243 kts | 340° |
| 2026-05-07 17:53 | 36.25763 | -86.70488 | 6062 ft | 259 kts | 336° |
| 2026-05-07 17:53 | 36.27168 | -86.71888 | 6615 ft | 265 kts | 302° |
| 2026-05-07 17:53 | 36.27647 | -86.74052 | 7335 ft | 265 kts | 268° |
| 2026-05-07 17:53 | 36.27002 | -86.76179 | 8093 ft | 271 kts | 234° |
| 2026-05-07 17:54 | 36.25441 | -86.77510 | 8866 ft | 281 kts | 205° |
| 2026-05-07 17:54 | 36.23534 | -86.78118 | 9633 ft | 285 kts | 197° |
| 2026-05-07 17:54 | 36.21560 | -86.78497 | 10256 ft | 289 kts | 198° |
| 2026-05-07 17:54 | 36.19642 | -86.79342 | 10391 ft | 298 kts | 213° |
| 2026-05-07 17:55 | 36.17769 | -86.80596 | 10563 ft | 314 kts | 216° |
| 2026-05-07 17:55 | 36.15819 | -86.81923 | 10939 ft | 323 kts | 215° |
| 2026-05-07 17:55 | 36.13831 | -86.83238 | 11556 ft | 324 kts | 216° |
| 2026-05-07 17:55 | 36.11851 | -86.84564 | 12246 ft | 323 kts | 216° |
| 2026-05-07 17:56 | 36.09885 | -86.85898 | 12993 ft | 322 kts | 217° |
| 2026-05-07 17:56 | 36.07948 | -86.87215 | 13759 ft | 321 kts | 218° |
| 2026-05-07 17:56 | 36.05990 | -86.88546 | 14464 ft | 321 kts | 218° |
| 2026-05-07 17:56 | 36.04020 | -86.89867 | 15110 ft | 324 kts | 218° |
| 2026-05-07 17:57 | 36.02018 | -86.91191 | 15742 ft | 327 kts | 217° |
| 2026-05-07 17:57 | 36.00685 | -86.92070 | 16145 ft | 329 kts | 217° |
| 2026-05-07 17:57 | 35.97953 | -86.93827 | 16970 ft | 333 kts | 216° |
| 2026-05-07 17:57 | 35.95867 | -86.95124 | 17567 ft | 338 kts | 216° |
| 2026-05-07 17:58 | 35.93741 | -86.96422 | 18072 ft | 344 kts | 215° |
| 2026-05-07 17:58 | 35.91582 | -86.97720 | 18649 ft | 346 kts | 215° |
| 2026-05-07 17:58 | 35.89410 | -86.99007 | 19265 ft | 347 kts | 215° |
| 2026-05-07 17:58 | 35.87222 | -87.00272 | 19916 ft | 348 kts | 215° |
| 2026-05-07 17:59 | 35.85016 | -87.01520 | 20595 ft | 349 kts | 214° |
| 2026-05-07 17:59 | 35.82793 | -87.02740 | 21260 ft | 351 kts | 214° |
| 2026-05-07 17:59 | 35.80546 | -87.03939 | 21897 ft | 352 kts | 214° |
| 2026-05-07 17:59 | 35.78359 | -87.05237 | 22478 ft | 344 kts | 221° |
| 2026-05-07 18:00 | 35.76339 | -87.06809 | 23038 ft | 344 kts | 223° |
| 2026-05-07 18:00 | 35.74357 | -87.08392 | 23612 ft | 345 kts | 223° |
| 2026-05-07 18:00 | 35.72343 | -87.10002 | 24107 ft | 345 kts | 224° |
| 2026-05-07 18:00 | 35.70337 | -87.11578 | 24719 ft | 338 kts | 225° |
| 2026-05-07 18:01 | 35.68406 | -87.13184 | 25134 ft | 335 kts | 226° |
| 2026-05-07 18:01 | 35.66464 | -87.14802 | 25464 ft | 338 kts | 225° |
| 2026-05-07 18:01 | 35.64472 | -87.16379 | 25827 ft | 340 kts | 225° |
| 2026-05-07 18:01 | 35.62487 | -87.17932 | 26409 ft | 337 kts | 225° |
| 2026-05-07 18:02 | 35.58289 | -87.20619 | 27585 ft | 338 kts | 221° |
| 2026-05-07 18:02 | 35.56206 | -87.21919 | 28157 ft | 334 kts | 222° |
| 2026-05-07 18:02 | 35.54139 | -87.23221 | 28684 ft | 332 kts | 222° |
| 2026-05-07 18:03 | 35.52113 | -87.24500 | 29208 ft | 330 kts | 223° |
| 2026-05-07 18:03 | 35.50082 | -87.25790 | 29730 ft | 327 kts | 223° |
| 2026-05-07 18:03 | 35.48068 | -87.27072 | 30164 ft | 326 kts | 223° |
| 2026-05-07 18:03 | 35.46028 | -87.28387 | 30070 ft | 337 kts | 223° |
| 2026-05-07 18:04 | 35.43912 | -87.29745 | 30078 ft | 347 kts | 222° |
| 2026-05-07 18:04 | 35.39519 | -87.32554 | 30123 ft | 364 kts | 222° |
| 2026-05-07 18:05 | 35.34970 | -87.35453 | 30164 ft | 378 kts | 221° |
| 2026-05-07 18:05 | 35.30238 | -87.38458 | 30044 ft | 385 kts | 221° |
| 2026-05-07 18:06 | 35.25469 | -87.41484 | 30061 ft | 387 kts | 221° |
| 2026-05-07 18:06 | 35.21461 | -87.44025 | 30015 ft | 387 kts | 221° |
| 2026-05-07 18:07 | 35.16678 | -87.47058 | 30054 ft | 390 kts | 220° |
| 2026-05-07 18:07 | 35.11867 | -87.50106 | 30047 ft | 389 kts | 220° |
| 2026-05-07 18:08 | 35.07052 | -87.53150 | 30066 ft | 389 kts | 220° |
| 2026-05-07 18:08 | 35.02301 | -87.56286 | 30082 ft | 378 kts | 227° |
| 2026-05-07 18:08 | 35.00388 | -87.58375 | 30086 ft | 362 kts | 237° |
| 2026-05-07 18:09 | 34.98921 | -87.60811 | 30086 ft | 353 kts | 244° |
| 2026-05-07 18:09 | 34.96165 | -87.65804 | 30081 ft | 353 kts | 242° |
| 2026-05-07 18:10 | 34.93474 | -87.70867 | 30013 ft | 359 kts | 242° |
| 2026-05-07 18:10 | 34.90735 | -87.75934 | 30031 ft | 358 kts | 243° |
| 2026-05-07 18:11 | 34.88024 | -87.81022 | 30064 ft | 358 kts | 243° |
| 2026-05-07 18:11 | 34.85340 | -87.86081 | 30066 ft | 358 kts | 243° |
| 2026-05-07 18:12 | 34.82637 | -87.91182 | 30063 ft | 358 kts | 243° |
| 2026-05-07 18:12 | 34.79939 | -87.96273 | 30063 ft | 358 kts | 243° |
| 2026-05-07 18:13 | 34.77235 | -88.01368 | 30067 ft | 358 kts | 243° |
| 2026-05-07 18:13 | 34.74528 | -88.06460 | 30070 ft | 359 kts | 243° |
| 2026-05-07 18:14 | 34.71825 | -88.11541 | 29988 ft | 356 kts | 243° |
| 2026-05-07 18:14 | 34.69117 | -88.16596 | 30078 ft | 361 kts | 242° |
| 2026-05-07 18:15 | 34.66386 | -88.21733 | 30070 ft | 362 kts | 242° |
| 2026-05-07 18:15 | 34.63642 | -88.26868 | 30075 ft | 362 kts | 242° |
| 2026-05-07 18:16 | 34.60895 | -88.32000 | 30077 ft | 362 kts | 242° |
| 2026-05-07 18:16 | 34.58236 | -88.36962 | 30080 ft | 363 kts | 242° |
| 2026-05-07 18:17 | 34.55482 | -88.42093 | 30076 ft | 363 kts | 242° |
| 2026-05-07 18:17 | 34.52725 | -88.47223 | 30075 ft | 363 kts | 242° |
| 2026-05-07 18:18 | 34.49974 | -88.52334 | 30076 ft | 361 kts | 242° |
| 2026-05-07 18:18 | 34.47223 | -88.57437 | 30072 ft | 361 kts | 242° |
| 2026-05-07 18:19 | 34.44473 | -88.62530 | 30096 ft | 363 kts | 242° |
| 2026-05-07 18:19 | 34.41694 | -88.67670 | 30075 ft | 365 kts | 242° |
| 2026-05-07 18:20 | 34.38910 | -88.72814 | 30073 ft | 365 kts | 242° |
| 2026-05-07 18:20 | 34.36123 | -88.77954 | 30074 ft | 365 kts | 242° |
| 2026-05-07 18:21 | 34.33331 | -88.83097 | 30075 ft | 365 kts | 242° |
| 2026-05-07 18:21 | 34.30542 | -88.88227 | 30080 ft | 364 kts | 242° |
| 2026-05-07 18:22 | 34.27775 | -88.93312 | 30076 ft | 364 kts | 242° |
| 2026-05-07 18:22 | 34.24984 | -88.98432 | 30076 ft | 364 kts | 242° |
| 2026-05-07 18:23 | 34.22195 | -89.03547 | 30078 ft | 364 kts | 242° |
| 2026-05-07 18:23 | 34.19395 | -89.08668 | 30054 ft | 368 kts | 242° |
| 2026-05-07 18:24 | 34.16571 | -89.13822 | 30085 ft | 368 kts | 242° |
| 2026-05-07 18:24 | 34.13768 | -89.18944 | 30087 ft | 368 kts | 242° |
| 2026-05-07 18:25 | 34.10943 | -89.24097 | 30085 ft | 368 kts | 242° |
| 2026-05-07 18:25 | 34.08119 | -89.29240 | 30082 ft | 367 kts | 242° |
| 2026-05-07 18:26 | 34.05297 | -89.34378 | 30082 ft | 367 kts | 242° |
| 2026-05-07 18:26 | 34.02469 | -89.39514 | 30084 ft | 367 kts | 242° |
| 2026-05-07 18:27 | 33.99640 | -89.44639 | 30080 ft | 367 kts | 242° |
| 2026-05-07 18:27 | 33.96807 | -89.49772 | 30084 ft | 367 kts | 242° |
| 2026-05-07 18:28 | 33.93965 | -89.54902 | 30099 ft | 371 kts | 242° |
| 2026-05-07 18:28 | 33.91103 | -89.60056 | 30087 ft | 372 kts | 242° |
| 2026-05-07 18:29 | 33.88217 | -89.65252 | 30081 ft | 373 kts | 242° |
| 2026-05-07 18:29 | 33.85341 | -89.70418 | 30089 ft | 373 kts | 242° |
| 2026-05-07 18:30 | 33.82456 | -89.75599 | 30086 ft | 373 kts | 242° |
| 2026-05-07 18:30 | 33.79568 | -89.80778 | 30086 ft | 373 kts | 242° |
| 2026-05-07 18:31 | 33.76673 | -89.85953 | 30084 ft | 373 kts | 242° |
| 2026-05-07 18:31 | 33.73780 | -89.91135 | 30082 ft | 373 kts | 242° |
| 2026-05-07 18:32 | 33.70884 | -89.96313 | 30082 ft | 374 kts | 242° |
| 2026-05-07 18:32 | 33.67996 | -90.01490 | 30084 ft | 373 kts | 241° |
| 2026-05-07 18:33 | 33.65070 | -90.06723 | 30091 ft | 379 kts | 241° |
| 2026-05-07 18:33 | 33.62137 | -90.11937 | 30100 ft | 379 kts | 241° |
| 2026-05-07 18:34 | 33.59185 | -90.17181 | 30101 ft | 379 kts | 241° |
| 2026-05-07 18:34 | 33.56223 | -90.22426 | 30102 ft | 380 kts | 241° |
| 2026-05-07 18:35 | 33.53246 | -90.27662 | 30099 ft | 379 kts | 241° |
| 2026-05-07 18:35 | 33.50294 | -90.32903 | 30098 ft | 380 kts | 241° |
| 2026-05-07 18:36 | 33.47339 | -90.38146 | 30096 ft | 380 kts | 241° |
| 2026-05-07 18:36 | 33.44369 | -90.43378 | 30093 ft | 379 kts | 240° |
| 2026-05-07 18:37 | 33.41420 | -90.48571 | 30101 ft | 379 kts | 241° |
| 2026-05-07 18:37 | 33.38448 | -90.53797 | 30098 ft | 379 kts | 241° |
| 2026-05-07 18:38 | 33.35486 | -90.59023 | 30095 ft | 379 kts | 240° |
| 2026-05-07 18:38 | 33.32498 | -90.64250 | 30101 ft | 380 kts | 240° |
| 2026-05-07 18:39 | 33.29528 | -90.69473 | 30104 ft | 379 kts | 240° |
| 2026-05-07 18:39 | 33.26575 | -90.74656 | 30105 ft | 380 kts | 240° |
| 2026-05-07 18:40 | 33.23577 | -90.79842 | 30106 ft | 377 kts | 240° |
| 2026-05-07 18:40 | 33.20636 | -90.85017 | 30107 ft | 377 kts | 240° |
| 2026-05-07 18:41 | 33.17674 | -90.90188 | 30110 ft | 377 kts | 240° |
| 2026-05-07 18:41 | 33.14703 | -90.95346 | 30127 ft | 378 kts | 240° |
| 2026-05-07 18:42 | 33.11683 | -91.00579 | 30108 ft | 384 kts | 240° |
| 2026-05-07 18:42 | 33.08661 | -91.05836 | 30118 ft | 384 kts | 240° |
| 2026-05-07 18:43 | 33.05659 | -91.11060 | 30117 ft | 384 kts | 240° |
| 2026-05-07 18:43 | 33.02617 | -91.16300 | 30095 ft | 383 kts | 240° |
| 2026-05-07 18:44 | 32.99595 | -91.21511 | 30087 ft | 382 kts | 239° |
| 2026-05-07 18:44 | 32.96575 | -91.26718 | 30066 ft | 382 kts | 239° |
| 2026-05-07 18:45 | 32.93555 | -91.31925 | 30047 ft | 382 kts | 240° |
| 2026-05-07 18:45 | 32.90540 | -91.37147 | 30051 ft | 382 kts | 239° |
| 2026-05-07 18:46 | 32.87519 | -91.42344 | 30056 ft | 383 kts | 239° |
| 2026-05-07 18:46 | 32.84465 | -91.47568 | 30045 ft | 388 kts | 239° |
| 2026-05-07 18:47 | 32.81381 | -91.52850 | 30084 ft | 389 kts | 239° |
| 2026-05-07 18:47 | 32.78304 | -91.58115 | 30093 ft | 387 kts | 239° |
| 2026-05-07 18:48 | 32.75219 | -91.63365 | 30110 ft | 388 kts | 239° |
| 2026-05-07 18:48 | 32.72112 | -91.68604 | 30110 ft | 387 kts | 239° |
| 2026-05-07 18:49 | 32.69033 | -91.73860 | 30106 ft | 388 kts | 239° |
| 2026-05-07 18:49 | 32.65964 | -91.79082 | 30108 ft | 388 kts | 239° |
| 2026-05-07 18:50 | 32.62880 | -91.84327 | 30104 ft | 387 kts | 239° |
| 2026-05-07 18:50 | 32.59792 | -91.89573 | 30111 ft | 388 kts | 239° |
| 2026-05-07 18:51 | 32.56677 | -91.94867 | 30098 ft | 391 kts | 239° |
| 2026-05-07 18:51 | 32.53555 | -92.00156 | 30104 ft | 392 kts | 239° |
| 2026-05-07 18:52 | 32.50421 | -92.05439 | 30108 ft | 391 kts | 239° |
| 2026-05-07 18:52 | 32.47992 | -92.09950 | 30099 ft | 390 kts | 241° |
| 2026-05-07 18:53 | 32.45103 | -92.15406 | 30101 ft | 390 kts | 241° |
| 2026-05-07 18:53 | 32.41754 | -92.21751 | 30098 ft | 391 kts | 241° |
| 2026-05-07 18:54 | 32.39339 | -92.26323 | 30098 ft | 390 kts | 241° |
| 2026-05-07 18:54 | 32.36480 | -92.31733 | 30097 ft | 389 kts | 241° |
| 2026-05-07 18:55 | 32.33606 | -92.37164 | 30096 ft | 389 kts | 241° |
| 2026-05-07 18:55 | 32.30726 | -92.42599 | 30080 ft | 393 kts | 241° |
| 2026-05-07 18:56 | 32.27828 | -92.48060 | 30096 ft | 392 kts | 241° |
| 2026-05-07 18:56 | 32.24931 | -92.53512 | 30103 ft | 392 kts | 241° |
| 2026-05-07 18:57 | 32.22032 | -92.58961 | 30101 ft | 392 kts | 241° |
| 2026-05-07 18:57 | 32.19130 | -92.64407 | 30102 ft | 392 kts | 241° |
| 2026-05-07 18:58 | 32.16243 | -92.69816 | 30106 ft | 391 kts | 241° |
| 2026-05-07 18:58 | 32.13331 | -92.75265 | 30105 ft | 392 kts | 241° |
| 2026-05-07 18:59 | 32.10419 | -92.80706 | 30105 ft | 392 kts | 240° |
| 2026-05-07 18:59 | 32.07524 | -92.86107 | 30104 ft | 392 kts | 240° |
| 2026-05-07 19:00 | 32.04612 | -92.91531 | 30107 ft | 392 kts | 240° |
| 2026-05-07 19:00 | 32.01683 | -92.96984 | 30110 ft | 394 kts | 240° |
| 2026-05-07 19:01 | 31.98743 | -93.02443 | 30097 ft | 394 kts | 240° |
| 2026-05-07 19:01 | 31.95804 | -93.07895 | 30093 ft | 394 kts | 240° |
| 2026-05-07 19:02 | 31.92866 | -93.13338 | 30090 ft | 394 kts | 240° |
| 2026-05-07 19:02 | 31.89921 | -93.18785 | 30094 ft | 394 kts | 240° |
| 2026-05-07 19:03 | 31.86997 | -93.24187 | 30088 ft | 394 kts | 240° |
| 2026-05-07 19:03 | 31.84052 | -93.29620 | 30097 ft | 394 kts | 240° |
| 2026-05-07 19:04 | 31.81100 | -93.35058 | 30098 ft | 394 kts | 240° |
| 2026-05-07 19:04 | 31.78148 | -93.40489 | 30097 ft | 394 kts | 240° |
| 2026-05-07 19:05 | 31.75192 | -93.45918 | 30061 ft | 394 kts | 240° |
| 2026-05-07 19:05 | 31.72212 | -93.51386 | 30103 ft | 399 kts | 240° |
| 2026-05-07 19:06 | 31.69218 | -93.56871 | 30096 ft | 399 kts | 240° |
| 2026-05-07 19:06 | 31.64742 | -93.65054 | 30093 ft | 399 kts | 240° |
| 2026-05-07 19:07 | 31.61747 | -93.70531 | 30091 ft | 398 kts | 240° |
| 2026-05-07 19:07 | 31.58751 | -93.75998 | 30092 ft | 399 kts | 240° |
| 2026-05-07 19:08 | 31.55750 | -93.81463 | 30081 ft | 398 kts | 240° |
| 2026-05-07 19:08 | 31.52763 | -93.86905 | 30089 ft | 397 kts | 240° |
| 2026-05-07 19:09 | 31.49770 | -93.92341 | 30090 ft | 397 kts | 240° |
| 2026-05-07 19:09 | 31.46774 | -93.97777 | 30091 ft | 397 kts | 240° |
| 2026-05-07 19:10 | 31.43763 | -94.03226 | 30082 ft | 400 kts | 240° |
| 2026-05-07 19:10 | 31.40736 | -94.08701 | 30077 ft | 400 kts | 239° |
| 2026-05-07 19:11 | 31.37694 | -94.14157 | 30077 ft | 400 kts | 239° |
| 2026-05-07 19:11 | 31.34689 | -94.19591 | 30076 ft | 400 kts | 239° |
| 2026-05-07 19:12 | 31.31665 | -94.25039 | 30061 ft | 399 kts | 239° |
| 2026-05-07 19:12 | 31.28645 | -94.30482 | 30066 ft | 399 kts | 239° |
| 2026-05-07 19:13 | 31.25624 | -94.35913 | 30061 ft | 399 kts | 239° |
| 2026-05-07 19:13 | 31.22596 | -94.41347 | 30062 ft | 399 kts | 239° |
| 2026-05-07 19:14 | 31.19567 | -94.46766 | 30052 ft | 398 kts | 239° |
| 2026-05-07 19:14 | 31.16535 | -94.52192 | 30052 ft | 399 kts | 239° |
| 2026-05-07 19:15 | 31.13477 | -94.57639 | 30074 ft | 401 kts | 239° |
| 2026-05-07 19:15 | 31.10449 | -94.63043 | 30065 ft | 400 kts | 239° |
| 2026-05-07 19:16 | 31.07397 | -94.68491 | 30064 ft | 400 kts | 239° |
| 2026-05-07 19:16 | 31.04343 | -94.73931 | 30086 ft | 400 kts | 239° |
| 2026-05-07 19:17 | 31.01280 | -94.79367 | 30083 ft | 400 kts | 239° |
| 2026-05-07 19:17 | 30.98250 | -94.84759 | 30078 ft | 400 kts | 239° |
| 2026-05-07 19:18 | 30.95180 | -94.90176 | 30077 ft | 400 kts | 239° |
| 2026-05-07 19:18 | 30.92117 | -94.95595 | 30084 ft | 400 kts | 239° |
| 2026-05-07 19:19 | 30.89061 | -95.01001 | 30070 ft | 399 kts | 239° |
| 2026-05-07 19:19 | 30.85996 | -95.06386 | 30060 ft | 399 kts | 239° |
| 2026-05-07 19:20 | 30.82943 | -95.11773 | 30078 ft | 398 kts | 238° |
| 2026-05-07 19:20 | 30.79888 | -95.17140 | 30073 ft | 398 kts | 238° |
| 2026-05-07 19:21 | 30.76821 | -95.22504 | 30063 ft | 398 kts | 238° |
| 2026-05-07 19:21 | 30.73792 | -95.27846 | 30070 ft | 398 kts | 238° |
| 2026-05-07 19:22 | 30.70736 | -95.33212 | 30076 ft | 398 kts | 238° |
| 2026-05-07 19:22 | 30.67680 | -95.38589 | 30074 ft | 398 kts | 238° |
| 2026-05-07 19:23 | 30.64594 | -95.43943 | 30082 ft | 399 kts | 238° |
| 2026-05-07 19:23 | 30.61534 | -95.49263 | 30076 ft | 399 kts | 238° |
| 2026-05-07 19:24 | 30.58470 | -95.54632 | 30072 ft | 398 kts | 238° |
| 2026-05-07 19:24 | 30.55395 | -95.59989 | 30064 ft | 398 kts | 238° |
| 2026-05-07 19:25 | 30.52326 | -95.65351 | 29981 ft | 398 kts | 238° |
| 2026-05-07 19:25 | 30.49266 | -95.70662 | 29971 ft | 398 kts | 238° |
| 2026-05-07 19:26 | 30.46176 | -95.76014 | 29965 ft | 399 kts | 238° |
| 2026-05-07 19:26 | 30.43094 | -95.81379 | 29920 ft | 399 kts | 238° |
| 2026-05-07 19:27 | 30.40010 | -95.86726 | 29921 ft | 399 kts | 238° |
| 2026-05-07 19:27 | 30.36920 | -95.92075 | 29917 ft | 399 kts | 238° |
| 2026-05-07 19:28 | 30.33817 | -95.97418 | 29872 ft | 399 kts | 238° |
| 2026-05-07 19:28 | 30.30804 | -96.02564 | 29871 ft | 399 kts | 238° |
| 2026-05-07 19:29 | 30.29264 | -96.05184 | 29536 ft | 385 kts | 238° |
| 2026-05-07 19:29 | 30.27785 | -96.07671 | 29309 ft | 365 kts | 237° |
| 2026-05-07 19:29 | 30.26372 | -96.10051 | 28764 ft | 354 kts | 238° |
| 2026-05-07 19:29 | 30.25018 | -96.12376 | 28309 ft | 344 kts | 238° |
| 2026-05-07 19:30 | 30.23675 | -96.14680 | 27858 ft | 347 kts | 238° |
| 2026-05-07 19:30 | 30.22317 | -96.17010 | 27397 ft | 352 kts | 238° |
| 2026-05-07 19:30 | 30.20961 | -96.19343 | 26918 ft | 356 kts | 238° |
| 2026-05-07 19:30 | 30.19579 | -96.21728 | 26456 ft | 358 kts | 238° |
| 2026-05-07 19:31 | 30.18186 | -96.24124 | 25992 ft | 360 kts | 238° |
| 2026-05-07 19:31 | 30.16784 | -96.26535 | 25514 ft | 362 kts | 238° |
| 2026-05-07 19:31 | 30.15374 | -96.28960 | 25030 ft | 363 kts | 238° |
| 2026-05-07 19:31 | 30.13970 | -96.31374 | 24553 ft | 361 kts | 238° |
| 2026-05-07 19:32 | 30.12563 | -96.33772 | 24086 ft | 359 kts | 237° |
| 2026-05-07 19:32 | 30.11163 | -96.36153 | 23609 ft | 357 kts | 237° |
| 2026-05-07 19:32 | 30.09775 | -96.38524 | 23107 ft | 354 kts | 237° |
| 2026-05-07 19:32 | 30.08406 | -96.40869 | 22685 ft | 352 kts | 237° |
| 2026-05-07 19:33 | 30.07042 | -96.43203 | 22226 ft | 349 kts | 237° |
| 2026-05-07 19:33 | 30.05685 | -96.45525 | 21763 ft | 347 kts | 237° |
| 2026-05-07 19:33 | 30.04347 | -96.47832 | 21306 ft | 345 kts | 237° |
| 2026-05-07 19:33 | 30.03009 | -96.50123 | 20856 ft | 342 kts | 237° |
| 2026-05-07 19:34 | 30.01681 | -96.52394 | 20409 ft | 340 kts | 237° |
| 2026-05-07 19:34 | 30.00479 | -96.54721 | 20010 ft | 337 kts | 245° |
| 2026-05-07 19:34 | 29.99828 | -96.57320 | 19454 ft | 342 kts | 259° |
| 2026-05-07 19:34 | 29.99943 | -96.60032 | 18985 ft | 345 kts | 275° |
| 2026-05-07 19:35 | 30.00422 | -96.62736 | 18511 ft | 344 kts | 276° |
| 2026-05-07 19:35 | 30.00914 | -96.65438 | 18034 ft | 342 kts | 276° |
| 2026-05-07 19:35 | 30.01421 | -96.68109 | 17641 ft | 340 kts | 277° |
| 2026-05-07 19:35 | 30.01925 | -96.70775 | 17209 ft | 341 kts | 277° |
| 2026-05-07 19:36 | 30.02434 | -96.73451 | 16772 ft | 340 kts | 277° |
| 2026-05-07 19:36 | 30.02940 | -96.76113 | 16337 ft | 340 kts | 278° |
| 2026-05-07 19:36 | 30.03443 | -96.78781 | 15902 ft | 339 kts | 278° |
| 2026-05-07 19:36 | 30.03939 | -96.81443 | 15454 ft | 338 kts | 278° |
| 2026-05-07 19:37 | 30.04428 | -96.84099 | 15030 ft | 338 kts | 278° |
| 2026-05-07 19:37 | 30.04908 | -96.86742 | 14582 ft | 333 kts | 278° |
| 2026-05-07 19:37 | 30.05499 | -96.89289 | 14171 ft | 325 kts | 285° |
| 2026-05-07 19:37 | 30.06259 | -96.91681 | 13736 ft | 318 kts | 287° |
| 2026-05-07 19:38 | 30.07013 | -96.94047 | 13346 ft | 309 kts | 287° |
| 2026-05-07 19:38 | 30.07732 | -96.96356 | 12946 ft | 302 kts | 287° |
| 2026-05-07 19:38 | 30.08419 | -96.98617 | 12568 ft | 294 kts | 284° |
| 2026-05-07 19:38 | 30.08551 | -97.00899 | 12203 ft | 284 kts | 257° |
| 2026-05-07 19:39 | 30.07631 | -97.02860 | 11948 ft | 278 kts | 229° |
| 2026-05-07 19:39 | 30.06225 | -97.04394 | 11768 ft | 279 kts | 225° |
| 2026-05-07 19:39 | 30.04906 | -97.06057 | 11502 ft | 282 kts | 234° |
| 2026-05-07 19:39 | 30.04178 | -97.07301 | 11324 ft | 282 kts | 240° |
| 2026-05-07 19:40 | 30.03359 | -97.09348 | 11067 ft | 281 kts | 250° |
| 2026-05-07 19:40 | 30.02782 | -97.11506 | 10830 ft | 281 kts | 257° |
| 2026-05-07 19:40 | 30.02422 | -97.13714 | 10589 ft | 280 kts | 261° |
| 2026-05-07 19:40 | 30.02132 | -97.15919 | 10334 ft | 274 kts | 262° |
| 2026-05-07 19:41 | 30.01871 | -97.18094 | 10109 ft | 274 kts | 263° |
| 2026-05-07 19:41 | 30.01622 | -97.20285 | 9895 ft | 277 kts | 263° |
| 2026-05-07 19:41 | 30.01384 | -97.22482 | 9638 ft | 276 kts | 263° |
| 2026-05-07 19:41 | 30.01154 | -97.24700 | 9394 ft | 281 kts | 263° |
| 2026-05-07 19:42 | 30.00930 | -97.26897 | 9094 ft | 266 kts | 263° |
| 2026-05-07 19:42 | 30.00723 | -97.28940 | 8790 ft | 249 kts | 263° |
| 2026-05-07 19:42 | 30.00528 | -97.30876 | 8557 ft | 237 kts | 263° |
| 2026-05-07 19:42 | 30.00343 | -97.32729 | 8344 ft | 228 kts | 263° |
| 2026-05-07 19:43 | 30.00162 | -97.34535 | 8274 ft | 226 kts | 263° |
| 2026-05-07 19:43 | 29.99987 | -97.36320 | 8361 ft | 227 kts | 263° |
| 2026-05-07 19:43 | 29.99805 | -97.38142 | 8062 ft | 231 kts | 263° |
| 2026-05-07 19:43 | 29.99611 | -97.40027 | 7767 ft | 239 kts | 263° |
| 2026-05-07 19:44 | 29.99420 | -97.41949 | 7425 ft | 242 kts | 263° |
| 2026-05-07 19:44 | 29.99227 | -97.43885 | 7081 ft | 244 kts | 263° |
| 2026-05-07 19:44 | 29.99032 | -97.45836 | 6760 ft | 246 kts | 263° |
| 2026-05-07 19:44 | 29.98830 | -97.47810 | 6415 ft | 250 kts | 262° |
| 2026-05-07 19:45 | 29.98629 | -97.49780 | 6039 ft | 247 kts | 263° |
| 2026-05-07 19:45 | 29.98431 | -97.51703 | 5734 ft | 236 kts | 263° |
| 2026-05-07 19:45 | 29.98249 | -97.53544 | 5431 ft | 226 kts | 263° |
| 2026-05-07 19:45 | 29.98076 | -97.55310 | 5154 ft | 217 kts | 263° |
| 2026-05-07 19:46 | 29.97907 | -97.57003 | 4907 ft | 208 kts | 263° |
| 2026-05-07 19:46 | 29.97744 | -97.58631 | 4681 ft | 202 kts | 263° |
| 2026-05-07 19:46 | 29.97583 | -97.60236 | 4515 ft | 201 kts | 263° |
| 2026-05-07 19:46 | 29.97419 | -97.61832 | 4355 ft | 199 kts | 263° |
| 2026-05-07 19:47 | 29.97257 | -97.63415 | 4112 ft | 199 kts | 264° |
| 2026-05-07 19:47 | 29.97282 | -97.64966 | 3871 ft | 190 kts | 283° |
| 2026-05-07 19:47 | 29.97825 | -97.66308 | 3619 ft | 182 kts | 313° |
| 2026-05-07 19:47 | 29.98791 | -97.67166 | 3441 ft | 173 kts | 340° |
| 2026-05-07 19:48 | 29.99898 | -97.67411 | 3524 ft | 159 kts | 4° |
| 2026-05-07 19:48 | 30.01023 | -97.67427 | 3589 ft | 169 kts | 5° |
| 2026-05-07 19:48 | 30.02234 | -97.67438 | 3440 ft | 177 kts | 2° |
| 2026-05-07 19:48 | 30.03413 | -97.67471 | 3591 ft | 168 kts | 3° |
| 2026-05-07 19:49 | 30.04612 | -97.67497 | 3440 ft | 167 kts | 4° |
| 2026-05-07 19:49 | 30.05702 | -97.67532 | 3369 ft | 156 kts | 4° |
| 2026-05-07 19:49 | 30.06820 | -97.67556 | 2863 ft | 162 kts | 4° |
| 2026-05-07 19:49 | 30.07943 | -97.67584 | 2387 ft | 159 kts | 5° |
| 2026-05-07 19:50 | 30.08992 | -97.67616 | 2158 ft | 142 kts | 4° |
| 2026-05-07 19:50 | 30.09955 | -97.67641 | 1990 ft | 138 kts | 3° |
| 2026-05-07 19:50 | 30.10902 | -97.67659 | 1847 ft | 133 kts | 2° |
| 2026-05-07 19:50 | 30.11815 | -97.67685 | 1690 ft | 131 kts | 1° |
| 2026-05-07 19:51 | 30.12738 | -97.67711 | 1538 ft | 134 kts | 0° |
| 2026-05-07 19:51 | 30.13654 | -97.67736 | 1375 ft | 129 kts | 1° |
| 2026-05-07 19:51 | 30.14555 | -97.67756 | 1243 ft | 131 kts | 1° |
| 2026-05-07 19:51 | 30.15448 | -97.67785 | 1101 ft | 129 kts | 2° |
| 2026-05-07 19:52 | 30.16346 | -97.67808 | 921 ft | 129 kts | 1° |
| 2026-05-07 19:52 | 30.17220 | -97.67828 | 702 ft | 127 kts | 1° |
| 2026-05-07 19:52 | 30.18093 | -97.67851 | 554 ft | 122 kts | 0° |
| 2026-05-07 19:52 | 30.18852 | -97.67872 | 526 ft | 87 kts | 358° |
| 2026-05-07 19:53 | 30.19317 | -97.67884 | 527 ft | 55 kts | 359° |
| 2026-05-07 19:53 | 30.19678 | -97.67890 | 524 ft | 49 kts | 2° |
| 2026-05-07 19:53 | 30.19882 | -97.67771 | 524 ft | 24 kts | 78° |
| 2026-05-07 19:53 | 30.19891 | -97.67572 | 525 ft | 25 kts | 89° |
| 2026-05-07 19:54 | 30.19892 | -97.67408 | 525 ft | 16 kts | 90° |
| 2026-05-07 19:54 | 30.19894 | -97.67275 | 525 ft | 18 kts | 88° |
| 2026-05-07 19:54 | 30.19898 | -97.67124 | 525 ft | 20 kts | 88° |
| 2026-05-07 19:54 | 30.19910 | -97.67000 | 525 ft | 12 kts | 47° |
| 2026-05-07 19:55 | 30.19992 | -97.66985 | 525 ft | 13 kts | 3° |
| 2026-05-07 19:55 | 30.20071 | -97.66956 | 525 ft | 12 kts | 32° |
| 2026-05-07 19:55 | 30.20137 | -97.66915 | 525 ft | 5 kts | 22° |
| 2026-05-07 19:55 | 30.20163 | -97.66903 | 525 ft | 0 kts | 21° |
| 2026-05-07 19:56 | 30.20165 | -97.66902 | 525 ft | 0 kts | 21° |